createdAt,value
2022-12-01T00:00:39.739Z,5.09
2022-12-01T00:03:09.115Z,5.02
2022-12-01T00:05:36.374Z,5.06
2022-12-01T00:08:05.160Z,5.00
2022-12-01T00:10:33.757Z,5.00
2022-12-01T00:13:02.601Z,4.93
2022-12-01T00:15:31.420Z,4.80
2022-12-01T00:17:58.783Z,4.77
2022-12-01T00:20:27.181Z,4.59
2022-12-01T00:22:54.026Z,4.58
2022-12-01T00:25:21.370Z,4.57
2022-12-01T00:27:49.084Z,4.52
2022-12-01T00:30:17.719Z,4.39
2022-12-01T00:32:44.848Z,4.45
2022-12-01T00:35:12.657Z,4.46
2022-12-01T00:37:41.053Z,4.44
2022-12-01T00:40:09.498Z,4.39
2022-12-01T00:42:36.563Z,4.37
2022-12-01T00:45:03.772Z,4.26
2022-12-01T00:47:30.576Z,4.27
2022-12-01T00:49:57.416Z,4.26
2022-12-01T00:52:24.414Z,4.20
2022-12-01T00:54:52.662Z,4.14
2022-12-01T00:57:19.482Z,4.01
2022-12-01T00:59:46.555Z,4.04
2022-12-01T01:02:13.701Z,3.94
2022-12-01T01:04:40.566Z,3.93
2022-12-01T01:07:07.431Z,3.93
2022-12-01T01:09:34.334Z,3.87
2022-12-01T01:12:02.510Z,3.84
2022-12-01T01:14:29.472Z,3.71
2022-12-01T01:16:56.463Z,3.69
2022-12-01T01:19:24.161Z,3.68
2022-12-01T01:21:51.004Z,3.59
2022-12-01T01:24:17.931Z,3.58
2022-12-01T01:26:44.808Z,3.57
2022-12-01T01:29:13.029Z,3.51
2022-12-01T01:31:40.006Z,3.39
2022-12-01T01:34:06.833Z,3.31
2022-12-01T01:36:33.726Z,3.34
2022-12-01T01:39:01.123Z,3.24
2022-12-01T01:41:34.476Z,3.08
2022-12-01T01:44:05.893Z,3.03
2022-12-01T01:46:42.835Z,2.91
2022-12-01T01:49:14.454Z,2.84
2022-12-01T01:51:45.010Z,2.85
2022-12-01T01:54:17.054Z,2.76
2022-12-01T01:56:45.855Z,2.70
2022-12-01T02:02:26.308Z,2.57
2022-12-01T02:04:57.000Z,2.49
2022-12-01T02:07:23.903Z,2.55
2022-12-01T02:09:51.130Z,2.49
2022-12-01T02:12:32.939Z,2.39
2022-12-01T02:15:14.288Z,2.35
2022-12-01T02:17:57.090Z,2.31
2022-12-01T02:20:56.001Z,2.21
2022-12-01T02:24:10.546Z,2.19
2022-12-01T02:26:46.783Z,2.12
2022-12-01T02:29:52.252Z,2.05
2022-12-01T02:32:29.346Z,2.04
2022-12-01T02:34:59.982Z,2.05
2022-12-01T02:37:37.031Z,1.97
2022-12-01T02:43:57.684Z,1.93
2022-12-01T02:46:30.734Z,1.93
2022-12-01T02:49:13.445Z,1.91
2022-12-01T02:51:45.683Z,1.91
2022-12-01T02:57:11.674Z,1.80
2022-12-01T02:59:51.330Z,1.85
2022-12-01T03:02:43.952Z,1.83
2022-12-01T03:05:21.440Z,1.76
2022-12-01T03:08:01.924Z,1.73
2022-12-01T03:11:18.843Z,1.73
2022-12-01T03:14:48.028Z,1.66
2022-12-01T03:17:24.348Z,1.63
2022-12-01T03:23:04.922Z,1.60
2022-12-01T03:25:44.359Z,1.57
2022-12-01T03:28:21.133Z,1.60
2022-12-01T03:30:50.857Z,1.64
2022-12-01T03:33:24.144Z,1.67
2022-12-01T03:35:56.367Z,1.64
2022-12-01T03:38:26.461Z,1.62
2022-12-01T03:40:58.212Z,1.67
2022-12-01T03:43:30.035Z,1.77
2022-12-01T03:46:03.561Z,1.92
2022-12-01T03:48:31.585Z,2.30
2022-12-01T03:51:07.276Z,2.56
2022-12-01T03:53:42.737Z,2.93
2022-12-01T04:04:43.985Z,3.59
2022-12-01T04:07:14.338Z,3.67
2022-12-01T04:09:42.598Z,3.69
2022-12-01T04:12:32.909Z,3.78
2022-12-01T04:15:01.622Z,3.84
2022-12-01T04:17:28.607Z,3.88
2022-12-01T04:19:55.555Z,3.87
2022-12-01T04:22:23.164Z,3.77
2022-12-01T04:24:51.723Z,3.74
2022-12-01T04:27:18.797Z,3.61
2022-12-01T04:29:45.674Z,3.46
2022-12-01T04:32:13.543Z,3.39
2022-12-01T04:34:40.555Z,3.30
2022-12-01T04:37:08.361Z,3.31
2022-12-01T04:39:35.219Z,3.28
2022-12-01T04:42:04.203Z,3.26
2022-12-01T04:44:34.757Z,3.27
2022-12-01T04:47:02.532Z,3.23
2022-12-01T04:49:29.646Z,3.24
2022-12-01T04:51:56.569Z,3.30
2022-12-01T04:54:23.846Z,3.32
2022-12-01T04:56:50.652Z,3.34
2022-12-01T04:59:18.928Z,3.31
2022-12-01T05:01:48.163Z,3.31
2022-12-01T05:04:15.656Z,3.27
2022-12-01T05:06:43.149Z,3.27
2022-12-01T05:09:17.531Z,3.25
2022-12-01T05:11:44.939Z,3.23
2022-12-01T05:14:12.048Z,3.20
2022-12-01T05:16:40.332Z,3.20
2022-12-01T05:19:25.419Z,3.14
2022-12-01T05:21:52.696Z,3.11
2022-12-01T05:24:21.114Z,3.14
2022-12-01T05:26:48.133Z,3.17
2022-12-01T05:29:15.187Z,3.17
2022-12-01T05:31:44.900Z,3.14
2022-12-01T05:34:11.743Z,3.16
2022-12-01T05:36:38.527Z,3.14
2022-12-01T05:39:05.345Z,3.11
2022-12-01T05:41:32.328Z,3.01
2022-12-01T05:43:59.300Z,3.02
2022-12-01T05:46:26.236Z,2.95
2022-12-01T05:48:54.530Z,2.94
2022-12-01T05:51:21.344Z,2.88
2022-12-01T05:53:48.350Z,2.78
2022-12-01T05:56:15.119Z,2.76
2022-12-01T05:58:41.898Z,2.68
2022-12-01T06:01:08.957Z,2.55
2022-12-01T06:03:35.774Z,2.38
2022-12-01T06:06:04.117Z,2.30
2022-12-01T06:08:30.908Z,2.22
2022-12-01T06:22:59.979Z,1.81
2022-12-01T06:25:26.797Z,1.75
2022-12-01T06:27:56.348Z,1.80
2022-12-01T06:30:23.298Z,1.72
2022-12-01T06:32:50.093Z,1.71
2022-12-01T06:35:17.011Z,1.68
2022-12-01T06:37:43.795Z,1.56
2022-12-01T06:40:13.007Z,1.61
2022-12-01T06:42:39.829Z,1.61
2022-12-01T06:45:07.460Z,1.63
2022-12-01T06:47:34.822Z,1.58
2022-12-01T06:50:01.710Z,1.59
2022-12-01T06:52:28.549Z,1.58
2022-12-01T06:54:55.391Z,1.42
2022-12-01T06:57:23.688Z,1.34
2022-12-01T06:59:50.981Z,1.39
2022-12-01T07:02:18.361Z,1.29
2022-12-01T07:04:45.234Z,1.20
2022-12-01T07:07:12.900Z,1.33
2022-12-01T07:09:40.156Z,1.36
2022-12-01T07:12:07.259Z,1.32
2022-12-01T07:14:36.151Z,1.35
2022-12-01T07:17:02.992Z,1.38
2022-12-01T07:19:29.911Z,1.39
2022-12-01T07:21:57.123Z,1.39
2022-12-01T07:24:24.091Z,1.35
2022-12-01T07:26:50.900Z,1.36
2022-12-01T07:29:18.009Z,1.36
2022-12-01T07:31:46.209Z,1.29
2022-12-01T07:34:13.635Z,1.28
2022-12-01T07:36:40.475Z,1.32
2022-12-01T07:39:08.404Z,1.30
2022-12-01T07:41:35.648Z,1.22
2022-12-01T07:44:02.676Z,1.25
2022-12-01T07:46:29.812Z,1.25
2022-12-01T07:48:58.311Z,1.28
2022-12-01T07:51:25.673Z,1.34
2022-12-01T07:53:53.985Z,1.34
2022-12-01T07:56:21.904Z,1.34
2022-12-01T07:58:49.426Z,1.43
2022-12-01T08:01:18.888Z,1.49
2022-12-01T08:03:45.710Z,1.50
2022-12-01T08:06:13.892Z,1.56
2022-12-01T08:08:41.553Z,1.62
2022-12-01T08:11:13.621Z,1.66
2022-12-01T08:13:41.269Z,1.66
2022-12-01T08:16:10.587Z,1.71
2022-12-01T08:18:38.754Z,1.73
2022-12-01T08:21:06.934Z,1.74
2022-12-01T08:23:35.312Z,1.71
2022-12-01T08:26:02.738Z,1.72
2022-12-01T08:28:29.873Z,1.78
2022-12-01T08:30:56.845Z,1.78
2022-12-01T08:33:23.774Z,1.94
2022-12-01T08:35:50.616Z,2.10
2022-12-01T08:38:17.610Z,2.14
2022-12-01T08:40:45.876Z,2.18
2022-12-01T08:43:28.335Z,2.26
2022-12-01T08:45:59.954Z,2.30
2022-12-01T08:48:29.871Z,2.36
2022-12-01T08:51:05.110Z,2.46
2022-12-01T08:53:32.637Z,2.49
2022-12-01T08:56:02.403Z,2.55
2022-12-01T08:58:29.901Z,2.62
2022-12-01T09:01:04.631Z,2.75
2022-12-01T09:03:31.727Z,2.75
2022-12-01T09:06:03.011Z,2.80
2022-12-01T09:08:33.155Z,2.82
2022-12-01T09:11:03.197Z,2.82
2022-12-01T09:13:30.586Z,2.88
2022-12-01T09:15:58.639Z,2.99
2022-12-01T09:18:25.910Z,3.09
2022-12-01T09:20:52.952Z,3.21
2022-12-01T09:23:20.104Z,3.25
2022-12-01T09:25:46.957Z,3.36
2022-12-01T09:28:15.410Z,3.39
2022-12-01T09:30:42.211Z,3.37
2022-12-01T09:33:09.060Z,3.50
2022-12-01T09:35:36.201Z,3.60
2022-12-01T09:38:04.495Z,3.72
2022-12-01T09:40:34.835Z,3.78
2022-12-01T09:43:04.627Z,3.80
2022-12-01T09:45:40.059Z,3.78
2022-12-01T09:48:13.938Z,3.93
2022-12-01T09:50:40.839Z,4.03
2022-12-01T09:53:09.085Z,4.11
2022-12-01T09:55:36.290Z,4.13
2022-12-01T09:58:05.731Z,4.16
2022-12-01T10:00:38.102Z,4.22
2022-12-01T10:03:23.974Z,4.25
2022-12-01T10:06:26.123Z,4.38
2022-12-01T10:08:52.430Z,4.46
2022-12-01T10:11:31.297Z,4.52
2022-12-01T10:13:59.246Z,4.65
2022-12-01T10:16:35.440Z,4.73
2022-12-01T10:19:08.113Z,4.73
2022-12-01T10:21:51.607Z,4.65
2022-12-01T10:24:33.703Z,4.67
2022-12-01T10:27:16.629Z,4.64
2022-12-01T10:29:48.178Z,4.80
2022-12-01T10:32:18.778Z,4.88
2022-12-01T10:34:48.003Z,4.97
2022-12-01T10:37:18.905Z,5.09
2022-12-01T10:39:49.475Z,5.11
2022-12-01T10:42:25.043Z,5.27
2022-12-01T10:44:55.158Z,5.29
2022-12-01T10:47:25.622Z,5.32
2022-12-01T10:49:53.137Z,5.40
2022-12-01T10:52:33.266Z,5.45
2022-12-01T10:55:00.792Z,5.50
2022-12-01T10:57:30.539Z,5.65
2022-12-01T11:00:00.909Z,5.63
2022-12-01T11:02:31.966Z,5.91
2022-12-01T11:05:01.294Z,5.98
2022-12-01T11:07:32.365Z,6.08
2022-12-01T11:10:13.940Z,6.27
2022-12-01T11:12:41.708Z,6.37
2022-12-01T11:15:17.955Z,6.52
2022-12-01T11:17:46.942Z,6.42
2022-12-01T11:20:29.873Z,6.64
2022-12-01T11:23:27.104Z,6.63
2022-12-01T11:26:14.167Z,6.75
2022-12-01T11:28:51.037Z,6.67
2022-12-01T11:31:19.299Z,6.93
2022-12-01T11:33:52.227Z,7.12
2022-12-01T11:36:22.716Z,7.27
2022-12-01T11:38:50.525Z,7.07
2022-12-01T11:41:28.783Z,7.09
2022-12-01T11:44:01.533Z,7.00
2022-12-01T11:46:33.128Z,7.19
2022-12-01T11:49:01.948Z,7.09
2022-12-01T11:51:32.428Z,7.12
2022-12-01T11:54:13.425Z,6.98
2022-12-01T11:56:41.066Z,6.99
2022-12-01T11:59:13.330Z,6.99
2022-12-01T12:01:50.642Z,6.46
2022-12-01T12:04:33.039Z,6.44
2022-12-01T12:07:05.718Z,6.50
2022-12-01T12:09:46.395Z,6.34
2022-12-01T12:12:25.244Z,6.23
2022-12-01T12:14:59.647Z,6.15
2022-12-01T12:17:44.465Z,6.30
2022-12-01T12:20:41.190Z,6.46
2022-12-01T12:23:45.552Z,6.51
2022-12-01T12:26:19.923Z,6.62
2022-12-01T12:29:01.726Z,6.70
2022-12-01T12:31:35.505Z,6.64
2022-12-01T12:34:16.224Z,6.75
2022-12-01T12:36:56.202Z,6.68
2022-12-01T12:39:40.867Z,6.84
2022-12-01T12:42:18.415Z,6.72
2022-12-01T12:44:51.604Z,6.68
2022-12-01T12:47:36.639Z,6.69
2022-12-01T12:50:15.922Z,6.65
2022-12-01T12:52:48.153Z,6.60
2022-12-01T12:55:22.701Z,6.78
2022-12-01T12:57:54.030Z,6.77
2022-12-01T13:00:23.718Z,6.81
2022-12-01T13:02:54.773Z,6.92
2022-12-01T13:05:27.312Z,7.01
2022-12-01T13:07:59.973Z,6.97
2022-12-01T13:10:34.407Z,6.87
2022-12-01T13:13:11.848Z,6.81
2022-12-01T13:15:40.620Z,6.85
2022-12-01T13:18:20.161Z,6.78
2022-12-01T13:20:49.191Z,6.79
2022-12-01T13:23:21.182Z,6.81
2022-12-01T13:25:51.220Z,6.70
2022-12-01T13:28:22.113Z,6.73
2022-12-01T13:31:01.024Z,6.70
2022-12-01T13:33:28.769Z,6.85
2022-12-01T13:36:29.835Z,6.91
2022-12-01T13:38:57.267Z,6.75
2022-12-01T13:41:26.960Z,6.86
2022-12-01T13:43:59.005Z,6.78
2022-12-01T13:46:27.913Z,6.88
2022-12-01T13:48:56.994Z,6.86
2022-12-01T13:51:24.279Z,6.94
2022-12-01T13:54:03.480Z,6.92
2022-12-01T13:56:47.045Z,6.86
2022-12-01T14:00:03.255Z,6.81
2022-12-01T14:02:32.576Z,6.88
2022-12-01T14:05:32.614Z,6.89
2022-12-01T14:07:59.626Z,6.72
2022-12-01T14:10:31.515Z,6.82
2022-12-01T14:13:03.174Z,6.84
2022-12-01T14:15:34.472Z,6.75
2022-12-01T14:18:05.230Z,6.65
2022-12-01T14:20:35.263Z,6.66
2022-12-01T14:23:15.353Z,6.54
2022-12-01T14:25:58.739Z,6.56
2022-12-01T14:28:58.702Z,6.48
2022-12-01T14:31:49.868Z,6.46
2022-12-01T14:34:19.577Z,6.44
2022-12-01T14:36:49.078Z,6.37
2022-12-01T14:39:19.683Z,6.29
2022-12-01T14:41:51.144Z,6.29
2022-12-01T14:44:25.305Z,6.29
2022-12-01T14:46:58.755Z,6.17
2022-12-01T14:49:29.681Z,6.02
2022-12-01T14:52:00.826Z,6.02
2022-12-01T14:54:31.633Z,5.88
2022-12-01T14:57:06.877Z,5.82
2022-12-01T14:59:35.304Z,5.76
2022-12-01T15:02:09.548Z,5.66
2022-12-01T15:05:06.937Z,5.59
2022-12-01T15:07:37.601Z,5.44
2022-12-01T15:10:06.439Z,5.35
2022-12-01T15:12:34.900Z,5.33
2022-12-01T15:15:02.745Z,5.28
2022-12-01T15:17:32.033Z,5.20
2022-12-01T15:19:59.478Z,5.10
2022-12-01T15:22:30.407Z,4.94
2022-12-01T15:25:06.719Z,4.80
2022-12-01T15:27:34.928Z,4.69
2022-12-01T15:30:04.761Z,4.61
2022-12-01T15:32:34.541Z,4.54
2022-12-01T15:35:03.628Z,4.42
2022-12-01T15:37:41.515Z,4.37
2022-12-01T15:43:06.466Z,4.20
2022-12-01T15:45:45.230Z,4.07
2022-12-01T15:48:17.006Z,4.02
2022-12-01T15:50:49.234Z,3.92
2022-12-01T15:53:23.954Z,3.85
2022-12-01T15:55:58.326Z,3.78
2022-12-01T15:58:33.007Z,3.71
2022-12-01T16:01:02.408Z,3.67
2022-12-01T16:03:29.631Z,3.64
2022-12-01T16:05:58.075Z,3.55
2022-12-01T16:08:27.593Z,3.53
2022-12-01T16:11:11.591Z,3.48
2022-12-01T16:13:48.332Z,3.36
2022-12-01T16:16:34.187Z,3.39
2022-12-01T16:19:02.908Z,3.31
2022-12-01T16:21:32.870Z,3.27
2022-12-01T16:24:01.370Z,3.23
2022-12-01T16:26:29.547Z,3.28
2022-12-01T16:29:00.067Z,3.20
2022-12-01T16:55:31.187Z,2.70
2022-12-01T16:57:58.038Z,2.64
2022-12-01T17:00:25.760Z,2.68
2022-12-01T17:02:52.791Z,2.63
2022-12-01T17:05:19.884Z,2.59
2022-12-01T17:07:46.706Z,2.60
2022-12-01T17:10:14.311Z,2.53
2022-12-01T17:12:42.481Z,2.57
2022-12-01T17:15:10.331Z,2.50
2022-12-01T17:17:37.318Z,2.49
2022-12-01T17:20:05.352Z,2.44
2022-12-01T17:22:32.282Z,2.33
2022-12-01T17:24:59.558Z,2.30
2022-12-01T17:27:27.715Z,2.20
2022-12-01T17:32:41.073Z,2.22
2022-12-01T17:35:08.792Z,2.17
2022-12-01T17:37:37.045Z,2.11
2022-12-01T17:40:04.716Z,2.07
2022-12-01T17:50:58.905Z,1.95
2022-12-01T17:53:26.752Z,1.97
2022-12-01T17:55:53.591Z,2.02
2022-12-01T17:58:21.671Z,1.98
2022-12-01T18:00:48.867Z,1.92
2022-12-01T18:03:15.762Z,1.83
2022-12-01T18:05:42.616Z,1.87
2022-12-01T18:08:11.123Z,1.84
2022-12-01T18:10:38.036Z,1.80
2022-12-01T18:13:04.902Z,1.74
2022-12-01T18:15:34.683Z,1.72
2022-12-01T18:18:01.813Z,1.73
2022-12-01T18:20:28.638Z,1.70
2022-12-01T18:22:55.497Z,1.62
2022-12-01T18:25:23.836Z,1.62
2022-12-01T18:27:53.372Z,1.64
2022-12-01T18:30:20.412Z,1.63
2022-12-01T18:32:47.200Z,1.52
2022-12-01T18:35:13.996Z,1.47
2022-12-01T18:37:40.970Z,1.43
2022-12-01T18:40:09.046Z,1.40
2022-12-01T18:42:37.367Z,1.39
2022-12-01T18:45:04.644Z,1.33
2022-12-01T18:47:31.427Z,1.34
2022-12-01T18:49:58.256Z,1.34
2022-12-01T18:52:25.079Z,1.38
2022-12-01T18:54:53.503Z,1.30
2022-12-01T18:57:20.699Z,1.25
2022-12-01T18:59:49.149Z,1.24
2022-12-01T19:02:16.035Z,1.26
2022-12-01T19:04:43.142Z,1.22
2022-12-01T19:07:10.101Z,1.15
2022-12-01T19:09:36.875Z,1.10
2022-12-01T19:12:04.053Z,1.08
2022-12-01T19:14:30.908Z,1.06
2022-12-01T19:16:59.148Z,1.01
2022-12-01T19:19:26.636Z,0.94
2022-12-01T19:21:54.054Z,0.94
2022-12-01T19:24:21.192Z,0.84
2022-12-01T19:26:48.024Z,0.81
2022-12-01T19:29:14.917Z,0.86
2022-12-01T19:31:41.784Z,0.87
2022-12-01T19:34:10.100Z,0.84
2022-12-01T19:36:36.924Z,0.82
2022-12-01T19:39:07.779Z,0.85
2022-12-01T19:41:34.771Z,0.88
2022-12-01T19:44:01.674Z,0.86
2022-12-01T19:46:28.875Z,0.88
2022-12-01T19:48:57.257Z,0.88
2022-12-01T19:51:27.463Z,0.88
2022-12-01T19:53:55.015Z,0.87
2022-12-01T19:56:22.300Z,0.84
2022-12-01T19:58:49.384Z,0.83
2022-12-01T20:01:18.450Z,0.80
2022-12-01T20:03:46.457Z,0.80
2022-12-01T20:06:16.361Z,0.78
2022-12-01T20:08:44.979Z,0.74
2022-12-01T20:11:14.367Z,0.71
2022-12-01T20:13:42.689Z,0.64
2022-12-01T20:16:12.480Z,0.62
2022-12-01T20:18:40.311Z,0.63
2022-12-01T20:21:09.191Z,0.56
2022-12-01T20:23:36.477Z,0.56
2022-12-01T20:26:07.085Z,0.59
2022-12-01T20:28:35.257Z,0.57
2022-12-01T20:31:02.652Z,0.56
2022-12-01T20:33:29.829Z,0.53
2022-12-01T20:35:56.675Z,0.52
2022-12-01T20:38:27.463Z,0.52
2022-12-01T20:40:55.388Z,0.53
2022-12-01T20:43:23.785Z,0.48
2022-12-01T20:45:50.763Z,0.40
2022-12-01T20:48:17.799Z,0.38
2022-12-01T20:50:44.819Z,0.36
2022-12-01T20:53:12.036Z,0.36
2022-12-01T20:55:38.916Z,0.37
2022-12-01T20:58:08.865Z,0.33
2022-12-01T21:00:38.362Z,0.35
2022-12-01T21:03:05.673Z,0.35
2022-12-01T21:05:33.230Z,0.37
2022-12-01T21:08:00.779Z,0.41
2022-12-01T21:10:27.740Z,0.41
2022-12-01T21:13:18.341Z,0.44
2022-12-01T21:15:51.531Z,0.42
2022-12-01T21:18:22.730Z,0.44
2022-12-01T21:20:53.220Z,0.44
2022-12-01T21:23:20.146Z,0.41
2022-12-01T21:25:49.082Z,0.38
2022-12-01T21:28:18.941Z,0.42
2022-12-01T21:30:46.851Z,0.45
2022-12-01T21:33:28.524Z,0.44
2022-12-01T21:35:55.897Z,0.44
2022-12-01T21:38:22.882Z,0.36
2022-12-01T21:40:49.821Z,0.35
2022-12-01T21:43:19.470Z,0.35
2022-12-01T21:45:49.852Z,0.41
2022-12-01T21:48:20.081Z,0.53
2022-12-01T21:50:50.882Z,0.59
2022-12-01T21:53:21.564Z,0.62
2022-12-01T21:55:49.489Z,0.67
2022-12-01T21:58:24.578Z,0.72
2022-12-01T22:00:52.603Z,0.77
2022-12-01T22:03:31.472Z,0.80
2022-12-01T22:06:28.885Z,0.78
2022-12-01T22:08:55.854Z,0.82
2022-12-01T22:11:24.179Z,0.85
2022-12-01T22:13:55.038Z,0.92
2022-12-01T22:16:25.878Z,0.98
2022-12-01T22:18:55.797Z,0.96
2022-12-01T22:21:33.499Z,1.00
2022-12-01T22:24:30.568Z,0.99
2022-12-01T22:27:06.627Z,1.01
2022-12-01T22:29:39.285Z,1.00
2022-12-01T22:32:31.566Z,1.02
2022-12-01T22:35:15.015Z,1.07
2022-12-01T22:37:45.408Z,1.09
2022-12-01T22:40:32.075Z,1.17
2022-12-01T22:43:00.426Z,1.13
2022-12-01T22:45:27.377Z,1.06
2022-12-01T22:47:56.854Z,1.06
2022-12-01T22:50:28.742Z,1.05
2022-12-01T22:52:59.111Z,1.05
2022-12-01T22:55:25.936Z,1.08
2022-12-01T22:57:52.786Z,1.07
2022-12-01T23:00:22.178Z,1.06
2022-12-01T23:02:50.880Z,1.00
2022-12-01T23:05:23.398Z,1.00
2022-12-01T23:07:52.561Z,0.98
2022-12-01T23:10:22.117Z,0.96
2022-12-01T23:12:50.651Z,0.97
2022-12-01T23:15:30.801Z,1.02
2022-12-01T23:17:59.954Z,1.09
2022-12-01T23:20:32.608Z,1.09
2022-12-01T23:23:02.697Z,1.10
2022-12-01T23:25:30.500Z,1.05
2022-12-01T23:28:00.446Z,1.04
2022-12-01T23:30:27.661Z,1.10
2022-12-01T23:33:06.067Z,1.14
2022-12-01T23:35:38.056Z,1.17
2022-12-01T23:38:14.092Z,1.23
2022-12-01T23:40:40.952Z,1.27
2022-12-01T23:43:16.048Z,1.31
2022-12-01T23:45:43.843Z,1.35
2022-12-01T23:48:18.077Z,1.32
2022-12-01T23:50:45.882Z,1.31
2022-12-01T23:53:24.010Z,1.28
2022-12-01T23:55:51.386Z,1.28
2022-12-01T23:58:18.166Z,1.33
